sensor_id;sensor_type;location;lat;lon;timestamp;P1;durP1;ratioP1;P2;durP2;ratioP2
61704;SDS011;47627;48.078;11.522;2023-08-06T06:45:30;2.90;;;1.90;;
61704;SDS011;47627;48.078;11.522;2023-08-06T07:02:24;2.00;;;1.13;;
61704;SDS011;47627;48.078;11.522;2023-08-06T07:04:49;2.00;;;1.45;;
61704;SDS011;47627;48.078;11.522;2023-08-06T07:07:15;2.72;;;1.27;;
61704;SDS011;47627;48.078;11.522;2023-08-06T07:09:40;4.72;;;1.42;;
61704;SDS011;47627;48.078;11.522;2023-08-06T07:12:05;2.00;;;1.10;;
61704;SDS011;47627;48.078;11.522;2023-08-06T07:14:31;1.98;;;1.00;;
61704;SDS011;47627;48.078;11.522;2023-08-06T07:16:56;4.38;;;1.10;;
61704;SDS011;47627;48.078;11.522;2023-08-06T07:19:21;3.30;;;1.00;;
61704;SDS011;47627;48.078;11.522;2023-08-06T07:53:45;4.05;;;1.52;;
61704;SDS011;47627;48.078;11.522;2023-08-06T07:56:11;3.38;;;1.30;;
61704;SDS011;47627;48.078;11.522;2023-08-06T07:58:36;3.63;;;1.88;;
61704;SDS011;47627;48.078;11.522;2023-08-06T08:01:01;2.78;;;1.33;;
61704;SDS011;47627;48.078;11.522;2023-08-06T08:03:26;1.83;;;1.08;;
61704;SDS011;47627;48.078;11.522;2023-08-06T08:05:54;3.38;;;1.25;;
61704;SDS011;47627;48.078;11.522;2023-08-06T08:08:19;5.00;;;1.52;;
61704;SDS011;47627;48.078;11.522;2023-08-06T08:10:44;4.10;;;1.52;;
61704;SDS011;47627;48.078;11.522;2023-08-06T08:13:10;2.92;;;1.55;;
61704;SDS011;47627;48.078;11.522;2023-08-06T08:15:35;2.10;;;1.02;;
61704;SDS011;47627;48.078;11.522;2023-08-06T08:18:00;1.80;;;0.88;;
61704;SDS011;47627;48.078;11.522;2023-08-06T08:20:26;2.83;;;1.00;;
61704;SDS011;47627;48.078;11.522;2023-08-06T08:22:56;0.95;;;0.57;;
61704;SDS011;47627;48.078;11.522;2023-08-06T08:25:21;1.23;;;0.60;;
61704;SDS011;47627;48.078;11.522;2023-08-06T08:27:46;1.83;;;0.70;;
61704;SDS011;47627;48.078;11.522;2023-08-06T08:30:12;1.73;;;0.60;;
61704;SDS011;47627;48.078;11.522;2023-08-06T08:32:37;2.20;;;0.60;;
61704;SDS011;47627;48.078;11.522;2023-08-06T08:35:03;4.75;;;0.60;;
61704;SDS011;47627;48.078;11.522;2023-08-06T08:37:28;0.95;;;0.65;;
61704;SDS011;47627;48.078;11.522;2023-08-06T08:39:53;2.50;;;0.57;;
61704;SDS011;47627;48.078;11.522;2023-08-06T08:42:18;1.02;;;0.60;;
61704;SDS011;47627;48.078;11.522;2023-08-06T08:44:44;2.28;;;0.70;;
61704;SDS011;47627;48.078;11.522;2023-08-06T08:47:09;1.40;;;0.60;;
61704;SDS011;47627;48.078;11.522;2023-08-06T08:49:35;1.00;;;0.40;;
61704;SDS011;47627;48.078;11.522;2023-08-06T08:52:00;0.80;;;0.30;;
61704;SDS011;47627;48.078;11.522;2023-08-06T08:54:26;1.40;;;0.30;;
61704;SDS011;47627;48.078;11.522;2023-08-06T08:56:52;1.70;;;0.40;;
61704;SDS011;47627;48.078;11.522;2023-08-06T08:59:17;3.40;;;0.50;;
61704;SDS011;47627;48.078;11.522;2023-08-06T09:01:43;1.92;;;0.45;;
61704;SDS011;47627;48.078;11.522;2023-08-06T09:04:11;0.60;;;0.40;;
61704;SDS011;47627;48.078;11.522;2023-08-06T09:06:37;1.30;;;0.40;;
61704;SDS011;47627;48.078;11.522;2023-08-06T09:09:08;1.02;;;0.40;;
61704;SDS011;47627;48.078;11.522;2023-08-06T09:11:35;1.90;;;0.30;;
61704;SDS011;47627;48.078;11.522;2023-08-06T09:14:06;1.95;;;0.47;;
61704;SDS011;47627;48.078;11.522;2023-08-06T09:16:32;0.70;;;0.30;;
61704;SDS011;47627;48.078;11.522;2023-08-06T09:19:05;1.80;;;0.38;;
61704;SDS011;47627;48.078;11.522;2023-08-06T09:21:31;0.68;;;0.30;;
61704;SDS011;47627;48.078;11.522;2023-08-06T09:23:58;1.08;;;0.50;;
61704;SDS011;47627;48.078;11.522;2023-08-06T09:26:23;0.80;;;0.35;;
61704;SDS011;47627;48.078;11.522;2023-08-06T09:28:49;0.30;;;0.20;;
61704;SDS011;47627;48.078;11.522;2023-08-06T09:31:17;1.10;;;0.40;;
61704;SDS011;47627;48.078;11.522;2023-08-06T09:33:42;2.05;;;0.40;;
61704;SDS011;47627;48.078;11.522;2023-08-06T09:36:12;0.95;;;0.50;;
61704;SDS011;47627;48.078;11.522;2023-08-06T09:38:38;1.80;;;0.32;;
61704;SDS011;47627;48.078;11.522;2023-08-06T09:41:05;0.68;;;0.20;;
61704;SDS011;47627;48.078;11.522;2023-08-06T09:43:30;1.80;;;0.35;;
61704;SDS011;47627;48.078;11.522;2023-08-06T09:45:55;1.25;;;0.30;;
61704;SDS011;47627;48.078;11.522;2023-08-06T09:48:21;1.50;;;0.30;;
61704;SDS011;47627;48.078;11.522;2023-08-06T09:50:49;1.23;;;0.40;;
61704;SDS011;47627;48.078;11.522;2023-08-06T09:53:17;0.55;;;0.30;;
61704;SDS011;47627;48.078;11.522;2023-08-06T09:55:43;0.75;;;0.20;;
61704;SDS011;47627;48.078;11.522;2023-08-06T09:58:09;0.55;;;0.30;;
61704;SDS011;47627;48.078;11.522;2023-08-06T10:00:35;0.95;;;0.30;;
61704;SDS011;47627;48.078;11.522;2023-08-06T10:03:00;0.80;;;0.20;;
61704;SDS011;47627;48.078;11.522;2023-08-06T10:05:25;0.43;;;0.20;;
61704;SDS011;47627;48.078;11.522;2023-08-06T10:07:51;0.40;;;0.20;;
61704;SDS011;47627;48.078;11.522;2023-08-06T10:10:17;0.10;;;0.10;;
61704;SDS011;47627;48.078;11.522;2023-08-06T10:12:46;1.35;;;0.20;;
61704;SDS011;47627;48.078;11.522;2023-08-06T10:15:14;2.42;;;0.20;;
61704;SDS011;47627;48.078;11.522;2023-08-06T10:17:39;0.40;;;0.20;;
61704;SDS011;47627;48.078;11.522;2023-08-06T10:20:05;4.13;;;0.30;;
61704;SDS011;47627;48.078;11.522;2023-08-06T10:22:32;0.45;;;0.20;;
61704;SDS011;47627;48.078;11.522;2023-08-06T10:24:58;1.73;;;0.40;;
61704;SDS011;47627;48.078;11.522;2023-08-06T10:27:33;1.40;;;0.32;;
61704;SDS011;47627;48.078;11.522;2023-08-06T10:35:09;1.88;;;0.15;;
61704;SDS011;47627;48.078;11.522;2023-08-06T10:37:52;0.30;;;0.30;;
61704;SDS011;47627;48.078;11.522;2023-08-06T10:40:20;1.15;;;0.20;;
61704;SDS011;47627;48.078;11.522;2023-08-06T10:42:46;1.75;;;0.20;;
61704;SDS011;47627;48.078;11.522;2023-08-06T10:45:11;0.75;;;0.10;;
61704;SDS011;47627;48.078;11.522;2023-08-06T10:47:40;0.40;;;0.20;;
61704;SDS011;47627;48.078;11.522;2023-08-06T10:50:06;0.22;;;0.20;;
61704;SDS011;47627;48.078;11.522;2023-08-06T10:52:32;1.02;;;0.30;;
61704;SDS011;47627;48.078;11.522;2023-08-06T10:54:58;1.48;;;0.22;;
61704;SDS011;47627;48.078;11.522;2023-08-06T10:57:23;0.15;;;0.10;;
61704;SDS011;47627;48.078;11.522;2023-08-06T10:59:49;0.75;;;0.25;;
61704;SDS011;47627;48.078;11.522;2023-08-06T11:02:14;3.20;;;0.30;;
61704;SDS011;47627;48.078;11.522;2023-08-06T11:04:39;1.17;;;0.15;;
61704;SDS011;47627;48.078;11.522;2023-08-06T11:07:06;0.75;;;0.20;;
61704;SDS011;47627;48.078;11.522;2023-08-06T11:09:31;3.35;;;0.20;;
61704;SDS011;47627;48.078;11.522;2023-08-06T11:11:57;0.53;;;0.20;;
61704;SDS011;47627;48.078;11.522;2023-08-06T11:14:22;0.40;;;0.20;;
61704;SDS011;47627;48.078;11.522;2023-08-06T11:16:47;2.38;;;0.35;;
61704;SDS011;47627;48.078;11.522;2023-08-06T11:19:13;0.80;;;0.20;;
61704;SDS011;47627;48.078;11.522;2023-08-06T11:21:40;0.20;;;0.20;;
61704;SDS011;47627;48.078;11.522;2023-08-06T11:24:05;0.75;;;0.28;;
61704;SDS011;47627;48.078;11.522;2023-08-06T11:26:30;2.05;;;0.28;;
61704;SDS011;47627;48.078;11.522;2023-08-06T11:28:56;0.22;;;0.10;;
61704;SDS011;47627;48.078;11.522;2023-08-06T11:31:21;0.30;;;0.30;;
61704;SDS011;47627;48.078;11.522;2023-08-06T11:33:47;0.35;;;0.15;;
61704;SDS011;47627;48.078;11.522;2023-08-06T11:36:12;0.10;;;0.10;;
61704;SDS011;47627;48.078;11.522;2023-08-06T11:38:37;0.10;;;0.10;;
61704;SDS011;47627;48.078;11.522;2023-08-06T11:41:02;1.73;;;0.20;;
61704;SDS011;47627;48.078;11.522;2023-08-06T11:43:29;0.38;;;0.20;;
61704;SDS011;47627;48.078;11.522;2023-08-06T11:45:55;1.85;;;0.10;;
61704;SDS011;47627;48.078;11.522;2023-08-06T11:48:21;1.85;;;0.30;;
61704;SDS011;47627;48.078;11.522;2023-08-06T11:50:46;1.10;;;0.20;;
61704;SDS011;47627;48.078;11.522;2023-08-06T11:53:12;1.60;;;0.20;;
61704;SDS011;47627;48.078;11.522;2023-08-06T11:55:38;1.10;;;0.20;;
61704;SDS011;47627;48.078;11.522;2023-08-06T11:58:08;0.20;;;0.10;;
61704;SDS011;47627;48.078;11.522;2023-08-06T12:00:34;0.28;;;0.17;;
61704;SDS011;47627;48.078;11.522;2023-08-06T12:03:01;0.40;;;0.10;;
61704;SDS011;47627;48.078;11.522;2023-08-06T12:05:30;0.35;;;0.30;;
61704;SDS011;47627;48.078;11.522;2023-08-06T12:07:56;0.10;;;0.10;;
61704;SDS011;47627;48.078;11.522;2023-08-06T12:10:22;0.40;;;0.20;;
61704;SDS011;47627;48.078;11.522;2023-08-06T12:12:48;1.42;;;0.20;;
61704;SDS011;47627;48.078;11.522;2023-08-06T12:15:15;0.60;;;0.10;;
61704;SDS011;47627;48.078;11.522;2023-08-06T12:17:40;0.13;;;0.13;;
61704;SDS011;47627;48.078;11.522;2023-08-06T12:20:06;0.30;;;0.10;;
61704;SDS011;47627;48.078;11.522;2023-08-06T12:22:32;0.73;;;0.20;;
61704;SDS011;47627;48.078;11.522;2023-08-06T12:25:04;0.93;;;0.30;;
61704;SDS011;47627;48.078;11.522;2023-08-06T12:27:31;0.77;;;0.20;;
61704;SDS011;47627;48.078;11.522;2023-08-06T12:29:57;0.75;;;0.20;;
61704;SDS011;47627;48.078;11.522;2023-08-06T12:32:22;0.20;;;0.10;;
61704;SDS011;47627;48.078;11.522;2023-08-06T12:34:47;0.85;;;0.20;;
61704;SDS011;47627;48.078;11.522;2023-08-06T12:37:12;0.95;;;0.40;;
61704;SDS011;47627;48.078;11.522;2023-08-06T12:39:38;1.50;;;0.38;;
61704;SDS011;47627;48.078;11.522;2023-08-06T12:42:04;0.40;;;0.40;;
61704;SDS011;47627;48.078;11.522;2023-08-06T12:44:29;1.23;;;0.45;;
61704;SDS011;47627;48.078;11.522;2023-08-06T12:46:55;2.85;;;0.35;;
61704;SDS011;47627;48.078;11.522;2023-08-06T12:49:20;0.10;;;0.10;;
61704;SDS011;47627;48.078;11.522;2023-08-06T12:51:46;0.17;;;0.17;;
61704;SDS011;47627;48.078;11.522;2023-08-06T12:54:11;0.95;;;0.30;;
61704;SDS011;47627;48.078;11.522;2023-08-06T12:56:37;0.10;;;0.10;;
61704;SDS011;47627;48.078;11.522;2023-08-06T12:59:02;0.55;;;0.20;;
61704;SDS011;47627;48.078;11.522;2023-08-06T13:01:27;0.45;;;0.20;;
61704;SDS011;47627;48.078;11.522;2023-08-06T13:03:52;0.65;;;0.20;;
61704;SDS011;47627;48.078;11.522;2023-08-06T13:06:17;0.10;;;0.10;;
61704;SDS011;47627;48.078;11.522;2023-08-06T13:08:43;0.32;;;0.20;;
61704;SDS011;47627;48.078;11.522;2023-08-06T13:11:08;0.55;;;0.15;;
61704;SDS011;47627;48.078;11.522;2023-08-06T13:13:34;0.32;;;0.20;;
61704;SDS011;47627;48.078;11.522;2023-08-06T13:15:59;0.32;;;0.10;;
61704;SDS011;47627;48.078;11.522;2023-08-06T13:18:24;0.32;;;0.10;;
61704;SDS011;47627;48.078;11.522;2023-08-06T13:20:49;0.38;;;0.20;;
61704;SDS011;47627;48.078;11.522;2023-08-06T13:23:17;0.82;;;0.30;;
61704;SDS011;47627;48.078;11.522;2023-08-06T13:25:43;1.13;;;0.17;;
61704;SDS011;47627;48.078;11.522;2023-08-06T13:28:08;0.32;;;0.10;;
61704;SDS011;47627;48.078;11.522;2023-08-06T13:30:33;1.02;;;0.20;;
61704;SDS011;47627;48.078;11.522;2023-08-06T13:33:00;0.57;;;0.50;;
61704;SDS011;47627;48.078;11.522;2023-08-06T13:35:26;0.75;;;0.30;;
61704;SDS011;47627;48.078;11.522;2023-08-06T13:37:51;0.30;;;0.30;;
61704;SDS011;47627;48.078;11.522;2023-08-06T13:40:17;1.42;;;0.70;;
61704;SDS011;47627;48.078;11.522;2023-08-06T13:42:42;0.70;;;0.60;;
61704;SDS011;47627;48.078;11.522;2023-08-06T13:45:07;1.67;;;0.65;;
61704;SDS011;47627;48.078;11.522;2023-08-06T13:47:33;2.08;;;0.60;;
61704;SDS011;47627;48.078;11.522;2023-08-06T13:49:58;0.88;;;0.52;;
61704;SDS011;47627;48.078;11.522;2023-08-06T13:52:25;1.20;;;0.55;;
61704;SDS011;47627;48.078;11.522;2023-08-06T13:54:50;2.30;;;0.70;;
61704;SDS011;47627;48.078;11.522;2023-08-06T13:57:15;1.00;;;0.50;;
61704;SDS011;47627;48.078;11.522;2023-08-06T13:59:42;1.65;;;0.68;;
61704;SDS011;47627;48.078;11.522;2023-08-06T14:02:08;2.03;;;0.80;;
61704;SDS011;47627;48.078;11.522;2023-08-06T14:04:34;1.38;;;0.77;;
61704;SDS011;47627;48.078;11.522;2023-08-06T14:06:59;1.25;;;0.70;;
61704;SDS011;47627;48.078;11.522;2023-08-06T14:09:24;1.35;;;0.68;;
61704;SDS011;47627;48.078;11.522;2023-08-06T14:11:49;1.65;;;0.60;;
